KMLI/MLI METAR and TAF weather

Enter ICAO airport designator
Station Type Date Time Source
KMLI METAR 2020/04/05 22:52 UTC NOAA

KMLI 052252Z AUTO 09008KT 10SM CLR 16/M03 A3009 RMK AO2 SLP193 T01561028


Station Type Date Time Source
KMLI Decoded METAR 2020/04/05 22:52 UTC NOAA

MOLINE QUAD-CITY AIRPORT, IL, United States (KMLI) 41-27N 90-31W 184M
Apr 05, 2020 - 06:52 PM EDT / 2020.04.05 2252 UTC
Wind: from the E (090 degrees) at 9 MPH (8 KT):0
Visibility: 10 mile(s):0
Sky conditions: clear
Temperature: 60.1 F (15.6 C)
Dew Point: 27.0 F (-2.8 C)
Relative Humidity: 28%
Pressure (altimeter): 30.09 in. Hg (1018 hPa)
ob: KMLI 052252Z AUTO 09008KT 10SM CLR 16/M03 A3009 RMK AO2 SLP193 T01561028
cycle: 23

Station Type Date Time Source
KMLI TAF 2020/04/05 18:36 UTC NOAA

TAF KMLI 051730Z 0518/0618 13008KT P6SM SKC
FM060700 12004KT P6SM BKN150
FM061500 14008KT P6SM BKN030

Example: see airport list